Time;durP1;ratioP1;P1;durP2;ratioP2;P2;SDS_P1;SDS_P2;PMS_P1;PMS_P2;Temp;Humidity;BMP_temperature;BMP_pressure;BME280_temperature;BME280_humidity;BME280_pressure;Samples;Min_cycle;Max_cycle;Signal;HPM_P1;HPM_P2
2022/04/10 00:53:14;;;;;;;4.83;1.60;;;;;;;2.53;68.62;97386.34;4576923;28;20235;-82
2022/04/10 00:56:16;;;;;;;3.97;1.77;;;;;;;2.53;68.62;97386.34;6179706;28;20666;-82
2022/04/10 00:59:18;;;;;;;4.83;2.07;;;;;;;2.58;68.52;97400.00;6179928;28;20239;-82
2022/04/10 01:02:21;;;;;;;3.87;1.40;;;;;;;2.55;69.11;97389.72;6182647;28;20658;-82
2022/04/10 01:05:23;;;;;;;5.23;1.50;;;;;;;2.54;67.96;97389.81;6183438;28;20250;-82
2022/04/10 01:08:26;;;;;;;1.60;1.27;;;;;;;2.56;68.08;97398.38;6179493;28;20724;-82
2022/04/10 01:11:29;;;;;;;2.27;1.37;;;;;;;2.51;68.62;97388.19;6164141;28;20284;-82
2022/04/10 01:14:34;;;;;;;6.83;1.70;;;;;;;2.52;68.69;97389.88;6199776;28;20238;-82
2022/04/10 01:17:44;;;;;;;2.47;1.10;;;;;;;2.47;68.71;97389.31;6179468;28;20228;-82
2022/04/10 01:20:48;;;;;;;1.53;1.17;;;;;;;2.46;68.89;97392.81;6163421;28;20617;-82
2022/04/10 01:23:52;;;;;;;1.57;1.33;;;;;;;2.44;68.63;97404.22;6180864;28;20702;-82
2022/04/10 01:26:55;;;;;;;2.47;1.60;;;;;;;2.46;69.29;97403.25;6178933;28;20246;-82
2022/04/10 01:30:01;;;;;;;1.60;1.10;;;;;;;2.48;69.00;97406.63;6163339;28;20244;-82
2022/04/10 01:33:04;;;;;;;2.67;1.50;;;;;;;2.47;69.05;97417.09;6139434;28;20239;-86
2022/04/10 01:36:06;;;;;;;1.47;1.20;;;;;;;2.42;69.08;97416.50;6180429;28;20217;-81
2022/04/10 01:39:10;;;;;;;5.27;1.40;;;;;;;2.47;69.18;97430.13;6180548;28;20263;-82
2022/04/10 01:42:14;;;;;;;2.83;1.40;;;;;;;2.43;69.66;97423.38;6179417;28;20687;-81
2022/04/10 01:45:16;;;;;;;3.43;1.53;;;;;;;2.38;69.79;97428.00;6162471;28;20376;-81
2022/04/10 01:48:19;;;;;;;3.63;1.43;;;;;;;2.36;69.68;97435.03;6180039;28;20226;-81
2022/04/10 01:51:22;;;;;;;2.90;1.43;;;;;;;2.41;69.85;97443.44;6180503;28;20239;-81
2022/04/10 01:54:25;;;;;;;4.83;1.60;;;;;;;2.42;69.73;97437.31;6166354;28;20302;-81
2022/04/10 01:57:29;;;;;;;1.73;1.20;;;;;;;2.35;69.84;97444.63;6161515;28;20226;-81
2022/04/10 02:00:31;;;;;;;3.20;1.33;;;;;;;2.31;70.36;97444.84;6182036;28;20225;-81
2022/04/10 02:03:35;;;;;;;2.87;1.47;;;;;;;2.28;70.78;97435.44;6162184;28;20306;-81
2022/04/10 02:06:38;;;;;;;2.47;1.70;;;;;;;2.31;70.58;97450.88;6178526;28;20229;-81
2022/04/10 02:09:40;;;;;;;2.77;1.43;;;;;;;2.29;70.82;97451.91;6178545;28;20571;-82
2022/04/10 02:12:42;;;;;;;1.87;1.40;;;;;;;2.20;71.01;97448.81;6163036;28;20300;-81
2022/04/10 02:15:45;;;;;;;2.50;1.60;;;;;;;2.15;71.20;97458.66;6177920;28;20238;-81
2022/04/10 02:18:48;;;;;;;3.57;1.93;;;;;;;2.08;71.37;97467.69;6179540;28;20722;-82
2022/04/10 02:21:50;;;;;;;3.53;1.97;;;;;;;2.08;72.12;97467.69;6178654;28;20254;-81
2022/04/10 02:24:53;;;;;;;2.83;1.70;;;;;;;2.05;72.21;97469.59;6177948;28;20236;-81
2022/04/10 02:27:55;;;;;;;3.07;1.90;;;;;;;2.03;72.37;97474.03;6178139;28;20368;-81
2022/04/10 02:30:58;;;;;;;3.73;1.97;;;;;;;1.99;72.10;97475.97;6177830;28;20222;-81
2022/04/10 02:34:00;;;;;;;2.77;1.50;;;;;;;1.92;72.79;97476.31;6161033;28;20709;-81
2022/04/10 02:37:03;;;;;;;4.47;1.90;;;;;;;1.91;73.28;97474.63;6186746;28;20236;-81
2022/04/10 02:40:07;;;;;;;3.80;2.20;;;;;;;1.87;72.81;97478.31;6171234;28;20348;-81
2022/04/10 02:43:10;;;;;;;2.50;1.90;;;;;;;1.85;73.37;97468.81;6158573;28;20242;-81
2022/04/10 02:46:13;;;;;;;3.73;2.50;;;;;;;1.92;72.97;97477.16;6170043;28;20240;-81
2022/04/10 02:49:17;;;;;;;3.20;2.27;;;;;;;1.88;73.26;97473.03;6171339;28;20325;-82
2022/04/10 02:52:19;;;;;;;4.23;2.23;;;;;;;1.91;73.06;97480.66;6165099;28;20767;-81
2022/04/10 02:55:22;;;;;;;6.17;2.57;;;;;;;1.90;73.04;97483.38;6160947;28;20236;-81
2022/04/10 02:58:24;;;;;;;5.10;2.20;;;;;;;1.91;73.16;97477.22;6156951;28;20237;-81
2022/04/10 03:01:27;;;;;;;3.13;1.93;;;;;;;1.89;72.99;97479.09;6168256;28;20243;-82
2022/04/10 03:04:29;;;;;;;2.37;1.67;;;;;;;1.88;73.14;97486.03;6157472;28;20242;-82
2022/04/10 03:07:32;;;;;;;5.53;2.40;;;;;;;1.81;73.41;97485.47;6178704;28;20733;-81
2022/04/10 03:10:35;;;;;;;5.37;2.20;;;;;;;1.80;73.70;97491.59;6179597;28;20242;-81
2022/04/10 03:13:37;;;;;;;3.20;2.10;;;;;;;1.78;73.07;97487.41;6191968;28;20228;-81
2022/04/10 03:16:42;;;;;;;5.60;2.43;;;;;;;1.76;73.16;97500.47;6172992;28;20236;-82
2022/04/10 03:19:45;;;;;;;2.33;1.90;;;;;;;1.82;72.92;97486.31;6177618;28;20234;-81
2022/04/10 03:22:47;;;;;;;4.67;2.00;;;;;;;1.82;72.98;97475.91;6161788;28;20717;-82
2022/04/10 03:25:50;;;;;;;3.70;2.20;;;;;;;1.81;73.00;97479.44;6179045;28;20228;-82
2022/04/10 03:28:52;;;;;;;3.93;1.77;;;;;;;1.78;73.04;97480.44;6162193;28;20230;-81
2022/04/10 03:31:55;;;;;;;2.57;1.83;;;;;;;1.71;73.13;97489.44;6161619;28;20242;-81
2022/04/10 03:34:58;;;;;;;2.27;1.97;;;;;;;1.64;73.28;97480.25;6160832;28;20233;-81
2022/04/10 03:38:00;;;;;;;4.10;2.37;;;;;;;1.63;73.61;97478.56;6168741;28;20705;-82
2022/04/10 03:41:02;;;;;;;4.17;2.10;;;;;;;1.64;73.15;97487.22;6177519;28;20240;-82
2022/04/10 03:44:05;;;;;;;3.47;1.77;;;;;;;1.65;73.24;97497.56;6177179;28;20248;-81
2022/04/10 03:47:07;;;;;;;4.10;1.70;;;;;;;1.68;72.71;97491.38;6183686;28;20727;-82
2022/04/10 03:50:09;;;;;;;4.33;1.90;;;;;;;1.64;72.72;97492.41;6181678;28;20225;-82
2022/04/10 03:53:13;;;;;;;2.90;1.67;;;;;;;1.55;73.09;97492.84;6165780;28;20251;-81
2022/04/10 03:56:16;;;;;;;3.77;1.93;;;;;;;1.40;73.49;97510.00;6180905;28;20236;-82
2022/04/10 03:59:18;;;;;;;3.47;1.90;;;;;;;1.31;73.88;97503.47;6181630;28;20237;-82
2022/04/10 04:02:24;;;;;;;3.23;1.63;;;;;;;1.29;73.71;97507.94;6178929;28;20234;-81
2022/04/10 04:05:26;;;;;;;4.43;1.80;;;;;;;1.29;74.17;97526.13;6176479;28;20628;-82
2022/04/10 04:08:29;;;;;;;3.37;2.30;;;;;;;1.27;73.86;97522.75;6165261;28;20251;-82
2022/04/10 04:11:31;;;;;;;4.60;1.77;;;;;;;1.27;74.00;97524.50;6182337;28;20236;-82
2022/04/10 04:14:35;;;;;;;4.10;1.57;;;;;;;1.29;73.82;97538.28;6164977;28;20695;-82
2022/04/10 04:17:38;;;;;;;3.60;2.10;;;;;;;1.43;73.20;97525.47;6164269;28;20313;-82
2022/04/10 04:20:40;;;;;;;3.97;2.80;;;;;;;1.45;73.74;97526.25;6181881;28;20240;-82
2022/04/10 04:23:43;;;;;;;3.17;1.80;;;;;;;1.43;73.76;97534.13;6170311;28;20250;-82
2022/04/10 04:26:46;;;;;;;3.57;2.60;;;;;;;1.46;73.86;97541.78;6178465;28;20237;-82
2022/04/10 04:29:50;;;;;;;4.70;2.67;;;;;;;1.45;73.98;97537.50;6165050;28;20599;-82
2022/04/10 04:32:52;;;;;;;2.83;2.33;;;;;;;1.47;74.32;97538.28;6181766;28;20233;-82
2022/04/10 04:35:54;;;;;;;4.77;2.77;;;;;;;1.46;73.86;97549.59;6167943;28;20225;-82
2022/04/10 04:38:57;;;;;;;4.90;2.20;;;;;;;1.42;73.87;97552.38;6188395;28;20230;-82
2022/04/10 04:42:00;;;;;;;4.53;2.20;;;;;;;1.37;74.50;97559.56;6183189;28;20229;-82
2022/04/10 04:45:03;;;;;;;5.57;2.97;;;;;;;1.35;74.07;97566.59;6165300;28;20221;-82
2022/04/10 04:48:06;;;;;;;2.37;2.17;;;;;;;1.31;74.34;97567.63;6164444;28;20225;-82
2022/04/10 04:51:13;;;;;;;4.07;2.63;;;;;;;1.27;74.63;97572.13;6180603;28;20225;-82
2022/04/10 04:54:15;;;;;;;3.47;2.20;;;;;;;1.21;74.69;97582.78;6078642;28;20236;-82
2022/04/10 04:57:17;;;;;;;5.80;2.53;;;;;;;1.26;74.70;97582.59;6179599;28;20232;-82
2022/04/10 05:00:20;;;;;;;2.53;1.90;;;;;;;1.26;74.25;97580.00;6180656;28;20312;-82
2022/04/10 05:03:27;;;;;;;4.77;2.10;;;;;;;1.22;74.74;97583.63;6165346;28;20232;-83
2022/04/10 05:06:30;;;;;;;5.53;2.13;;;;;;;1.18;75.08;97582.94;6180128;28;20236;-82
2022/04/10 05:09:33;;;;;;;3.13;2.00;;;;;;;1.20;74.87;97582.88;6179779;28;20700;-82
2022/04/10 05:12:35;;;;;;;4.40;2.43;;;;;;;1.18;74.90;97593.34;6182645;28;20733;-82
2022/04/10 05:15:42;;;;;;;6.13;2.33;;;;;;;1.20;74.89;97595.88;6181307;28;20221;-83
2022/04/10 05:18:47;;;;;;;4.00;2.10;;;;;;;1.20;74.97;97607.09;6163213;28;20221;-84
2022/04/10 05:21:50;;;;;;;7.53;2.77;;;;;;;1.26;75.51;97616.38;6179392;28;20553;-82
2022/04/10 05:24:53;;;;;;;3.23;2.40;;;;;;;1.31;74.67;97610.06;6180402;28;20221;-82
2022/04/10 05:27:56;;;;;;;3.27;2.30;;;;;;;1.32;74.91;97621.31;6170878;28;20233;-82
2022/04/10 05:30:58;;;;;;;2.77;2.03;;;;;;;1.33;75.05;97617.78;6168552;28;20229;-81
2022/04/10 05:34:06;;;;;;;4.77;2.67;;;;;;;1.34;74.89;97625.53;6163892;28;20221;-85
2022/04/10 05:37:08;;;;;;;4.87;2.57;;;;;;;1.44;74.77;97626.81;6163321;28;20221;-81
2022/04/10 05:40:18;;;;;;;6.20;2.60;;;;;;;1.58;74.19;97638.34;6178978;28;20678;-81
2022/04/10 05:43:21;;;;;;;4.87;2.87;;;;;;;1.64;74.30;97641.50;6178424;28;20234;-81
2022/04/10 05:46:26;;;;;;;4.30;2.37;;;;;;;1.62;74.15;97645.94;6163535;28;20248;-86
2022/04/10 05:49:32;;;;;;;4.63;2.17;;;;;;;1.67;74.43;97645.75;6177762;28;20713;-81
2022/04/10 05:52:46;;;;;;;6.40;2.80;;;;;;;1.85;73.15;97648.34;6162756;28;20391;-85
2022/04/10 05:55:50;;;;;;;6.23;2.77;;;;;;;2.03;72.45;97637.97;6178418;28;20229;-82
2022/04/10 05:58:58;;;;;;;6.97;2.90;;;;;;;2.13;71.85;97654.84;6186859;28;20608;-82
2022/04/10 06:02:00;;;;;;;6.77;2.90;;;;;;;2.24;70.82;97647.38;6174756;28;20240;-82
2022/04/10 06:05:04;;;;;;;6.00;2.83;;;;;;;2.38;70.25;97638.94;6177922;28;20320;-82
2022/04/10 06:08:09;;;;;;;4.07;2.50;;;;;;;2.48;69.90;97648.81;6176986;28;20233;-82
2022/04/10 06:11:11;;;;;;;5.00;2.57;;;;;;;2.51;69.43;97647.81;6163807;28;20269;-82
2022/04/10 06:14:15;;;;;;;3.87;2.70;;;;;;;2.54;69.13;97652.88;6183218;28;20243;-82
2022/04/10 06:17:19;;;;;;;7.30;2.77;;;;;;;2.62;69.36;97662.91;6164799;28;20314;-82
2022/04/10 06:20:22;;;;;;;3.87;2.43;;;;;;;2.64;68.66;97656.72;6153293;28;20226;-86
2022/04/10 06:23:26;;;;;;;4.80;2.67;;;;;;;2.71;67.74;97652.03;6137573;28;20235;-82
2022/04/10 06:26:38;;;;;;;3.00;2.30;;;;;;;2.76;67.90;97663.94;6160258;28;20247;-84
2022/04/10 06:29:40;;;;;;;2.80;2.50;;;;;;;2.87;65.78;97653.00;6166938;28;20230;-82
2022/04/10 06:32:43;;;;;;;5.47;2.60;;;;;;;2.99;65.34;97648.94;6176235;28;20232;-82
2022/04/10 06:35:45;;;;;;;3.23;2.17;;;;;;;3.07;64.91;97647.63;6177842;28;20217;-82
2022/04/10 06:38:49;;;;;;;2.67;1.83;;;;;;;3.11;65.06;97646.53;6180706;28;20221;-82
2022/04/10 06:41:56;;;;;;;4.83;2.10;;;;;;;3.12;64.88;97657.78;6169934;28;20602;-82
2022/04/10 06:45:22;;;;;;;4.17;2.30;;;;;;;3.18;63.78;97647.06;6168350;28;20264;-82
2022/04/10 06:48:31;;;;;;;3.80;2.17;;;;;;;3.22;63.44;97649.44;6179262;28;20240;-82
2022/04/10 06:51:38;;;;;;;2.50;1.93;;;;;;;3.33;63.05;97681.00;6177807;28;20314;-82
2022/04/10 06:54:43;;;;;;;4.43;2.37;;;;;;;3.37;63.26;97655.63;6162897;28;20225;-81
2022/04/10 06:57:51;;;;;;;2.73;2.00;;;;;;;3.49;62.19;97662.81;6178068;28;20227;-82
2022/04/10 07:00:59;;;;;;;3.63;1.77;;;;;;;3.59;60.90;97671.81;6162394;28;20259;-82
2022/04/10 07:04:05;;;;;;;3.23;1.70;;;;;;;3.69;59.72;97661.78;6179725;28;20313;-82
2022/04/10 07:07:12;;;;;;;3.20;1.80;;;;;;;3.91;60.08;97670.13;6154755;28;20756;-81
2022/04/10 07:10:15;;;;;;;4.97;2.40;;;;;;;4.12;60.91;97668.13;6179830;28;20245;-82
2022/04/10 07:13:23;;;;;;;2.30;1.57;;;;;;;4.29;59.63;97675.84;6188938;28;20251;-81
2022/04/10 07:16:36;;;;;;;2.90;1.67;;;;;;;4.60;58.39;97676.75;6160100;28;20225;-82
2022/04/10 07:19:41;;;;;;;4.10;1.63;;;;;;;4.73;57.10;97670.78;6172797;28;20594;-82
2022/04/10 07:26:12;;;;;;;2.40;1.40;;;;;;;5.20;55.18;97667.16;6173518;28;20248;-86
2022/04/10 07:29:26;;;;;;;3.27;1.40;;;;;;;5.54;53.71;97679.09;6171222;28;20229;-83
2022/04/10 07:32:32;;;;;;;4.57;1.87;;;;;;;5.76;52.73;97655.91;6158331;28;20267;-85
2022/04/10 07:35:47;;;;;;;4.50;1.50;;;;;;;5.97;53.33;97677.34;6175463;28;20236;-85
2022/04/10 07:38:57;;;;;;;3.33;1.50;;;;;;;6.12;52.39;97672.94;6173630;28;20242;-86
2022/04/10 07:42:10;;;;;;;4.37;1.50;;;;;;;6.43;51.67;97679.69;6155113;28;20706;-83
2022/04/10 07:49:45;;;;;;;3.40;1.40;;;;;;;6.82;49.06;97682.38;6157795;28;20237;-84
2022/04/10 07:52:49;;;;;;;4.07;1.63;;;;;;;6.93;49.54;97698.25;6145642;28;20245;-84
2022/04/10 07:56:01;;;;;;;2.97;1.60;;;;;;;7.26;49.16;97696.97;6167006;28;20237;-83
2022/04/10 07:59:09;;;;;;;3.07;1.60;;;;;;;7.45;48.86;97697.44;6175993;28;20226;-83
2022/04/10 08:02:16;;;;;;;2.87;1.73;;;;;;;7.50;48.17;97691.84;6191854;28;20256;-84
2022/04/10 08:05:20;;;;;;;2.93;1.17;;;;;;;7.82;48.06;97714.16;6160299;28;20777;-83
2022/04/10 08:08:38;;;;;;;3.30;1.67;;;;;;;8.17;46.14;97706.47;6163452;28;20245;-83
2022/04/10 08:11:46;;;;;;;6.27;1.57;;;;;;;7.68;46.56;97722.16;6159061;28;20233;-83
2022/04/10 08:15:02;;;;;;;3.17;1.40;;;;;;;7.99;45.84;97716.44;6172521;28;20720;-83
2022/04/10 08:18:10;;;;;;;3.27;1.80;;;;;;;8.34;45.49;97718.44;6142530;28;20281;-84
2022/04/10 08:21:14;;;;;;;1.50;1.40;;;;;;;8.50;45.64;97705.88;6156462;28;20614;-83
2022/04/10 08:24:21;;;;;;;2.17;1.40;;;;;;;8.30;45.29;97711.66;6180782;28;20583;-84
2022/04/10 08:27:26;;;;;;;2.80;1.43;;;;;;;8.35;45.66;97717.50;6172265;28;20237;-84
2022/04/10 08:30:29;;;;;;;3.27;1.50;;;;;;;8.74;45.10;97726.97;6180058;28;20232;-84
2022/04/10 08:33:34;;;;;;;4.73;2.03;;;;;;;8.98;45.18;97712.03;6157083;28;20225;-84
2022/04/10 08:36:39;;;;;;;3.60;1.40;;;;;;;8.68;46.25;97709.84;6169133;28;20226;-84
2022/04/10 08:39:47;;;;;;;2.87;1.53;;;;;;;8.82;43.68;97712.28;6184680;28;20228;-84
2022/04/10 08:42:55;;;;;;;3.63;1.50;;;;;;;8.76;44.70;97717.16;6165292;28;20249;-84
2022/04/10 08:46:01;;;;;;;2.03;1.23;;;;;;;9.11;42.37;97710.16;6165648;28;20239;-84
2022/04/10 08:49:07;;;;;;;3.60;1.47;;;;;;;9.24;41.82;97723.25;6172432;28;20710;-85
2022/04/10 08:52:09;;;;;;;3.83;1.50;;;;;;;9.59;43.10;97724.06;6169210;28;20238;-83
2022/04/10 08:55:12;;;;;;;3.77;1.73;;;;;;;9.75;41.91;97734.31;6177864;28;20242;-84
2022/04/10 08:58:14;;;;;;;2.13;1.20;;;;;;;9.88;39.80;97729.75;6178839;28;20235;-84
2022/04/10 09:01:22;;;;;;;2.47;1.47;;;;;;;9.44;39.21;97738.41;6158341;28;20230;-84
2022/04/10 09:04:25;;;;;;;3.50;1.27;;;;;;;9.21;40.47;97723.47;6179637;28;20244;-83
2022/04/10 09:07:27;;;;;;;2.80;1.83;;;;;;;8.17;42.72;97731.91;6163057;28;20353;-84
2022/04/10 09:10:29;;;;;;;2.27;1.60;;;;;;;8.08;42.30;97736.84;6162864;28;20246;-83
2022/04/10 09:13:34;;;;;;;2.30;1.30;;;;;;;8.83;42.63;97721.03;6192653;28;20239;-84
2022/04/10 09:16:37;;;;;;;3.47;1.70;;;;;;;9.30;41.13;97727.22;6161614;28;20594;-84
2022/04/10 09:19:45;;;;;;;2.73;1.43;;;;;;;9.29;42.64;97723.75;6156386;28;20268;-84
2022/04/10 09:23:08;;;;;;;3.00;1.80;;;;;;;9.07;42.33;97718.41;6160398;28;20243;-83
2022/04/10 09:26:10;;;;;;;3.57;1.90;;;;;;;9.24;43.76;97712.72;6163385;28;20364;-83
2022/04/10 09:29:14;;;;;;;3.30;1.83;;;;;;;8.75;44.68;97711.06;6157574;28;20258;-83
2022/04/10 09:32:17;;;;;;;3.70;1.60;;;;;;;9.00;45.07;97707.47;6135737;28;20651;-84
2022/04/10 09:35:24;;;;;;;3.47;1.60;;;;;;;8.66;44.12;97701.22;6163549;28;20599;-88
2022/04/10 09:38:30;;;;;;;3.23;1.73;;;;;;;8.75;44.76;97726.84;6179313;28;20759;-87
2022/04/10 09:41:33;;;;;;;4.10;1.83;;;;;;;8.79;43.69;97716.94;6165147;28;20243;-86
2022/04/10 09:44:37;;;;;;;3.80;2.00;;;;;;;8.79;43.29;97707.25;6165354;28;20238;-85
2022/04/10 09:47:40;;;;;;;3.07;1.50;;;;;;;9.10;43.51;97713.72;6179754;28;20247;-84
2022/04/10 09:50:43;;;;;;;3.67;1.90;;;;;;;9.66;42.21;97715.72;6182151;28;20227;-84
2022/04/10 09:54:03;;;;;;;2.13;1.70;;;;;;;9.91;41.99;97712.88;6167639;28;20700;-83
2022/04/10 09:57:16;;;;;;;2.33;1.80;;;;;;;10.29;41.58;97729.22;6160794;28;20294;-86
2022/04/10 10:00:18;;;;;;;3.77;1.77;;;;;;;9.91;44.19;97728.69;6190953;28;20213;-89
2022/04/10 10:03:24;;;;;;;3.93;1.90;;;;;;;9.68;43.61;97754.19;6181647;28;20244;-83
2022/04/10 10:06:26;;;;;;;1.97;1.73;;;;;;;9.33;44.93;97750.69;6163685;28;20235;-83
2022/04/10 10:09:31;;;;;;;4.33;2.07;;;;;;;9.08;46.66;97746.41;6163216;28;20228;-83
2022/04/10 10:12:34;;;;;;;1.77;1.53;;;;;;;9.26;46.30;97737.16;6178956;28;20247;-83
2022/04/10 10:15:38;;;;;;;3.27;2.00;;;;;;;9.77;45.58;97729.78;6181516;28;20345;-82
2022/04/10 10:18:43;;;;;;;3.70;1.83;;;;;;;10.25;43.46;97719.91;6178461;28;20229;-83
2022/04/10 10:21:45;;;;;;;3.17;1.70;;;;;;;10.92;41.81;97700.47;6162634;28;20236;-83
2022/04/10 10:25:03;;;;;;;2.67;1.50;;;;;;;11.79;38.72;97697.53;6163255;28;20250;-83
2022/04/10 10:28:17;;;;;;;1.57;1.47;;;;;;;12.11;37.50;97696.59;6179361;28;20264;-83
2022/04/10 10:32:02;;;;;;;2.17;1.97;;;;;;;12.18;37.13;97695.09;6157347;28;20237;-88
2022/04/10 10:35:11;;;;;;;3.23;2.00;;;;;;;11.31;38.62;97704.28;6173341;28;20740;-86
2022/04/10 10:38:25;;;;;;;2.63;2.17;;;;;;;10.14;43.62;97762.06;6173421;28;20226;-88
2022/04/10 10:41:36;;;;;;;2.33;2.00;;;;;;;8.07;51.41;97794.78;6179423;28;20734;-88
2022/04/10 10:44:39;;;;;;;3.90;2.40;;;;;;;7.02;56.21;97801.78;6179898;28;20254;-86
2022/04/10 10:48:20;;;;;;;2.00;1.90;;;;;;;6.08;60.93;97805.06;6168259;28;20234;-90
2022/04/10 10:51:25;;;;;;;2.30;2.10;;;;;;;5.48;61.77;97805.94;6181343;28;20232;-86
2022/04/10 10:54:34;;;;;;;3.93;3.03;;;;;;;5.46;62.72;97791.25;6164022;28;20363;-87
2022/04/10 10:57:42;;;;;;;3.93;2.80;;;;;;;5.60;63.47;97778.19;6183987;28;20737;-90
2022/04/10 11:00:52;;;;;;;2.87;2.50;;;;;;;5.57;64.27;97768.75;6183493;28;20474;-84
2022/04/10 11:04:03;;;;;;;6.70;2.90;;;;;;;5.64;65.13;97758.75;6183024;28;20240;-84
2022/04/10 11:07:24;;;;;;;2.80;2.60;;;;;;;5.83;65.05;97759.34;6182236;28;20367;-84
2022/04/10 11:10:29;;;;;;;5.73;3.43;;;;;;;5.93;64.70;97764.91;6167106;28;20308;-84
2022/04/10 11:13:46;;;;;;;4.57;3.07;;;;;;;5.71;65.52;97777.56;6180375;28;20235;-84
2022/04/10 11:16:51;;;;;;;3.80;3.20;;;;;;;5.37;68.94;97802.25;6184481;28;20714;-84
2022/04/10 11:20:05;;;;;;;5.20;3.40;;;;;;;4.82;69.19;97813.19;6158787;28;20229;-84
2022/04/10 11:23:09;;;;;;;5.60;3.50;;;;;;;4.42;70.35;97841.47;6172248;28;20240;-84
2022/04/10 11:26:16;;;;;;;6.00;3.13;;;;;;;3.96;70.46;97844.81;6158310;28;20226;-84
2022/04/10 11:29:20;;;;;;;3.20;2.87;;;;;;;3.76;72.19;97869.31;6160700;28;20233;-84
2022/04/10 11:32:23;;;;;;;2.53;2.30;;;;;;;3.44;73.34;97860.47;6142774;28;20537;-84
2022/04/10 11:35:30;;;;;;;3.10;2.57;;;;;;;3.11;73.97;97869.91;6163282;28;20223;-84
2022/04/10 11:38:32;;;;;;;2.90;2.17;;;;;;;2.94;74.79;97855.91;6182180;28;20243;-84
2022/04/10 11:41:35;;;;;;;3.97;1.77;;;;;;;2.76;75.00;97851.56;6181284;28;20250;-84
2022/04/10 11:44:39;;;;;;;2.23;1.93;;;;;;;2.91;74.88;97823.91;6165826;28;20984;-84
2022/04/10 11:47:42;;;;;;;2.10;2.00;;;;;;;3.34;74.11;97817.50;6167180;28;20241;-83
2022/04/10 11:50:45;;;;;;;1.70;1.60;;;;;;;4.27;74.14;97807.50;6166932;28;20228;-84
2022/04/10 11:53:59;;;;;;;2.37;1.53;;;;;;;5.45;73.12;97800.03;6182509;28;20247;-84
2022/04/10 11:57:06;;;;;;;1.87;1.70;;;;;;;6.46;69.80;97787.00;6159625;28;20236;-83
2022/04/10 12:00:10;;;;;;;1.80;1.70;;;;;;;7.22;69.24;97780.31;6174736;28;20220;-83
2022/04/10 12:03:14;;;;;;;2.00;1.80;;;;;;;7.83;60.57;97768.38;6183383;28;20218;-84
2022/04/10 12:06:20;;;;;;;2.10;1.50;;;;;;;8.93;64.40;97769.41;6181569;28;20213;-84
2022/04/10 12:09:24;;;;;;;1.87;1.77;;;;;;;9.72;60.58;97754.78;6165447;28;20235;-84
2022/04/10 12:12:38;;;;;;;2.63;1.70;;;;;;;10.40;59.68;97743.38;6165392;28;20242;-85
2022/04/10 12:15:42;;;;;;;2.47;1.97;;;;;;;10.07;59.64;97746.81;6176698;28;20263;-85
2022/04/10 12:18:53;;;;;;;2.50;2.30;;;;;;;9.33;61.82;97751.53;6157434;28;20233;-85
2022/04/10 12:21:55;;;;;;;2.77;1.90;;;;;;;8.46;61.48;97764.91;6155257;28;20678;-85
2022/04/10 12:24:58;;;;;;;2.73;2.50;;;;;;;7.46;63.01;97782.28;6154259;28;20653;-86
2022/04/10 12:28:01;;;;;;;3.20;2.90;;;;;;;6.29;64.30;97820.31;6157233;28;20245;-84
2022/04/10 12:31:05;;;;;;;3.37;2.53;;;;;;;4.95;67.46;97863.06;6167914;28;20229;-87
2022/04/10 12:34:11;;;;;;;2.40;2.20;;;;;;;4.43;69.75;97853.63;6179666;28;20312;-86
2022/04/10 12:37:17;;;;;;;2.60;2.03;;;;;;;3.91;70.42;97844.19;6175887;28;20249;-84
2022/04/10 12:40:27;;;;;;;2.83;1.70;;;;;;;3.85;71.35;97807.97;6165198;28;20243;-84
2022/04/10 12:43:30;;;;;;;2.10;1.90;;;;;;;4.28;71.19;97810.03;6166494;28;20603;-84
2022/04/10 12:46:34;;;;;;;2.47;2.27;;;;;;;4.79;70.34;97802.94;6164433;28;20275;-84
2022/04/10 12:49:39;;;;;;;3.30;2.00;;;;;;;5.16;69.43;97805.16;6187372;28;20296;-84
2022/04/10 12:52:45;;;;;;;2.57;2.20;;;;;;;5.87;68.30;97807.16;6188478;28;20340;-91
2022/04/10 12:55:49;;;;;;;3.27;2.67;;;;;;;5.87;67.29;97817.63;6186923;28;20704;-84
2022/04/10 12:58:56;;;;;;;3.03;2.40;;;;;;;5.72;68.74;97827.22;6159579;28;20230;-85
2022/04/10 13:01:59;;;;;;;4.77;2.60;;;;;;;5.35;70.35;97827.66;6167954;28;20239;-91
2022/04/10 13:05:04;;;;;;;3.87;2.50;;;;;;;5.06;71.30;97827.53;6163797;28;20591;-84
2022/04/10 13:08:11;;;;;;;3.70;2.43;;;;;;;5.26;70.04;97809.88;6164326;28;20236;-83
2022/04/10 13:11:13;;;;;;;3.73;2.40;;;;;;;5.68;70.13;97789.06;6180416;28;20937;-83
2022/04/10 13:14:32;;;;;;;4.13;2.30;;;;;;;5.87;69.12;97768.72;6200621;28;20648;-82
2022/04/10 13:17:36;;;;;;;4.10;1.80;;;;;;;6.73;66.06;97751.16;6164309;28;20618;-82
2022/04/10 13:20:39;;;;;;;1.83;1.70;;;;;;;8.12;64.31;97759.34;6171971;28;20241;-83
2022/04/10 13:23:42;;;;;;;3.40;1.73;;;;;;;9.21;59.06;97755.91;6154691;28;20614;-83
2022/04/10 13:26:46;;;;;;;2.47;1.70;;;;;;;11.06;55.66;97743.28;6153674;28;20243;-83
2022/04/10 13:29:48;;;;;;;1.63;1.30;;;;;;;12.82;47.08;97737.13;6178163;28;20243;-84
2022/04/10 13:32:50;;;;;;;3.20;1.50;;;;;;;12.37;48.17;97742.84;6164141;28;20263;-84
2022/04/10 13:35:52;;;;;;;2.97;1.37;;;;;;;11.31;50.78;97751.84;6181755;28;20227;-84
2022/04/10 13:38:55;;;;;;;2.43;1.53;;;;;;;10.09;51.73;97758.06;6163683;28;20235;-89
2022/04/10 13:42:00;;;;;;;2.13;1.57;;;;;;;11.45;49.98;97768.25;6163736;28;20612;-84
2022/04/10 13:45:03;;;;;;;2.10;1.33;;;;;;;10.21;52.14;97776.47;6171621;28;20606;-86
2022/04/10 13:48:05;;;;;;;3.87;1.30;;;;;;;9.72;54.29;97774.06;6167229;28;20247;-85
2022/04/10 13:51:08;;;;;;;2.03;1.43;;;;;;;11.82;49.39;97760.75;6149913;28;20573;-85
2022/04/10 13:54:11;;;;;;;3.70;1.90;;;;;;;10.52;47.59;97768.81;6152157;28;20256;-88
2022/04/10 13:57:14;;;;;;;2.33;1.97;;;;;;;9.64;52.87;97768.53;6156800;28;20212;-89
2022/04/10 14:00:17;;;;;;;3.83;1.93;;;;;;;9.08;52.07;97765.69;6169747;28;20212;-88
2022/04/10 14:03:19;;;;;;;1.63;1.53;;;;;;;9.95;53.80;97759.16;6178684;28;20581;-90
2022/04/10 14:06:22;;;;;;;3.73;1.50;;;;;;;9.87;52.13;97761.53;6162702;28;20236;-88
2022/04/10 14:09:24;;;;;;;3.20;1.97;;;;;;;13.23;45.93;97738.75;6145616;28;20230;-86
2022/04/10 14:12:28;;;;;;;2.30;1.57;;;;;;;15.09;38.63;97744.16;6162956;28;20234;-87
2022/04/10 14:15:30;;;;;;;2.73;1.73;;;;;;;12.81;44.44;97743.41;6162305;28;20228;-83
2022/04/10 14:18:32;;;;;;;1.50;1.40;;;;;;;10.98;47.66;97748.31;6162852;28;20281;-85
2022/04/10 14:21:34;;;;;;;2.57;1.70;;;;;;;9.88;51.65;97748.22;6162547;28;20602;-86
2022/04/10 14:24:37;;;;;;;2.10;1.53;;;;;;;9.22;54.75;97749.69;6161058;28;20303;-85
2022/04/10 14:27:39;;;;;;;2.83;1.80;;;;;;;8.93;56.12;97758.03;6177433;28;20228;-86
2022/04/10 14:30:42;;;;;;;1.80;1.63;;;;;;;10.32;52.47;97744.81;6162452;28;20314;-88
2022/04/10 14:33:46;;;;;;;2.27;1.50;;;;;;;11.66;45.90;97733.91;6182359;28;20240;-86
2022/04/10 14:36:48;;;;;;;2.73;1.33;;;;;;;14.77;41.48;97720.69;6178532;28;20231;-82
2022/04/10 14:39:51;;;;;;;3.93;1.40;;;;;;;18.56;33.21;97720.91;6194228;28;20223;-86
2022/04/10 14:42:53;;;;;;;1.83;1.00;;;;;;;20.32;30.00;97723.59;6178132;28;20588;-85
2022/04/10 14:45:56;;;;;;;1.57;1.13;;;;;;;21.21;27.66;97722.59;6152648;28;20222;-84
2022/04/10 14:48:59;;;;;;;1.27;0.93;;;;;;;22.22;26.50;97724.19;6142998;28;20233;-87
2022/04/10 14:52:11;;;;;;;2.87;1.20;;;;;;;23.59;24.42;97713.50;6155878;28;20594;-89
2022/04/10 14:55:14;;;;;;;1.67;1.10;;;;;;;24.96;22.11;97712.59;6176285;28;20236;-90
2022/04/10 14:58:16;;;;;;;1.33;0.80;;;;;;;25.93;20.12;97713.34;6161736;28;20219;-86
2022/04/10 15:01:19;;;;;;;2.83;0.93;;;;;;;25.89;19.41;97715.66;6180383;28;20909;-92
2022/04/10 15:04:22;;;;;;;1.87;1.10;;;;;;;24.93;19.25;97707.66;6163068;28;20700;-89
2022/04/10 15:07:26;;;;;;;1.60;1.07;;;;;;;23.80;20.46;97714.16;6162852;28;20244;-87
2022/04/10 15:10:29;;;;;;;3.07;1.13;;;;;;;24.01;21.01;97718.53;6163027;28;20236;-89
2022/04/10 15:13:32;;;;;;;2.23;0.70;;;;;;;23.17;20.30;97718.94;6176485;28;20239;-88
2022/04/10 15:16:35;;;;;;;1.90;1.00;;;;;;;21.29;20.76;97719.78;6165143;28;20230;-87
2022/04/10 15:19:43;;;;;;;1.27;0.93;;;;;;;20.73;23.43;97723.19;6164836;28;20237;-83
2022/04/10 15:22:45;;;;;;;1.03;0.90;;;;;;;19.87;23.31;97725.34;6161060;28;20230;-87
2022/04/10 15:25:47;;;;;;;0.80;0.70;;;;;;;18.18;26.17;97725.16;6151455;28;20528;-84
2022/04/10 15:28:49;;;;;;;1.87;1.00;;;;;;;15.46;30.41;97736.06;6160624;28;20265;-84
2022/04/10 15:31:59;;;;;;;1.73;1.30;;;;;;;13.39;32.51;97740.84;6178099;28;20225;-87
2022/04/10 15:35:02;;;;;;;1.53;1.00;;;;;;;11.41;34.92;97761.53;6179413;28;20242;-84
2022/04/10 15:38:05;;;;;;;1.40;1.00;;;;;;;10.86;36.40;97754.63;6178522;28;20238;-84
2022/04/10 15:41:07;;;;;;;1.27;0.93;;;;;;;10.36;38.16;97782.38;6183392;28;20574;-83